createdAt,value
2022-11-14T00:01:28.214Z,18814.03
2022-11-14T00:03:57.684Z,18767.31
2022-11-14T00:06:25.772Z,18763.25
2022-11-14T00:08:53.888Z,18783.56
2022-11-14T00:11:22.031Z,18803.88
2022-11-14T00:13:50.138Z,18830.31
2022-11-14T00:16:18.295Z,18826.25
2022-11-14T00:18:46.395Z,18826.25
2022-11-14T00:21:15.863Z,18820.16
2022-11-14T00:23:44.002Z,18834.38
2022-11-14T00:26:12.105Z,18803.88
2022-11-14T00:28:40.208Z,18822.19
2022-11-14T00:31:08.351Z,18803.88
2022-11-14T00:33:36.475Z,18795.75
2022-11-14T00:36:05.341Z,18799.81
2022-11-14T00:38:34.842Z,18785.59
2022-11-14T00:41:03.029Z,18807.94
2022-11-14T00:43:31.239Z,18761.22
2022-11-14T00:45:59.399Z,18809.97
2022-11-14T00:48:27.814Z,18828.28
2022-11-14T00:50:56.184Z,18858.75
2022-11-14T00:53:24.276Z,18783.56
2022-11-14T00:55:53.761Z,18828.28
2022-11-14T00:58:21.857Z,18850.63
2022-11-14T01:00:50.106Z,18854.69
2022-11-14T01:03:18.673Z,18807.94
2022-11-14T01:05:50.390Z,18816.06
2022-11-14T01:08:20.953Z,18830.31
2022-11-14T01:10:51.836Z,18828.28
2022-11-14T01:13:21.407Z,18803.88
2022-11-14T01:15:52.095Z,18789.66
2022-11-14T01:18:23.001Z,18805.91
2022-11-14T01:20:51.525Z,18791.69
2022-11-14T01:23:19.730Z,18822.19
2022-11-14T01:25:48.026Z,18803.88
2022-11-14T01:28:21.005Z,18791.69
2022-11-14T01:30:49.220Z,18801.84
2022-11-14T01:33:17.311Z,18789.66
2022-11-14T01:35:45.383Z,18822.19
2022-11-14T01:38:16.042Z,18771.38
2022-11-14T01:40:46.474Z,18832.34
2022-11-14T01:43:32.642Z,18785.59
2022-11-14T01:46:05.147Z,18805.91
2022-11-14T01:48:42.518Z,18785.59
2022-11-14T01:51:24.546Z,18814.03
2022-11-14T01:53:56.512Z,18801.84
2022-11-14T01:56:32.472Z,18816.06
2022-11-14T01:59:08.465Z,18791.69
2022-11-14T02:01:42.552Z,18789.66
2022-11-14T02:04:15.083Z,18757.16
2022-11-14T02:06:43.863Z,18820.16
2022-11-14T02:09:12.007Z,18791.69
2022-11-14T02:11:45.751Z,18809.97
2022-11-14T02:14:15.303Z,18771.38
2022-11-14T02:17:00.781Z,18787.63
2022-11-14T02:19:44.671Z,18809.97
2022-11-14T02:22:14.258Z,18777.47
2022-11-14T02:24:42.720Z,18812.00
2022-11-14T02:27:13.760Z,18803.88
2022-11-14T02:29:42.381Z,18793.72
2022-11-14T02:32:11.131Z,18797.78
2022-11-14T02:34:39.787Z,18771.38
2022-11-14T02:37:08.815Z,18842.50
2022-11-14T02:39:38.989Z,18793.72
2022-11-14T02:42:07.461Z,18775.44
2022-11-14T02:44:35.651Z,18797.78
2022-11-14T02:47:03.829Z,18791.69
2022-11-14T02:49:32.038Z,18763.25
2022-11-14T02:52:00.170Z,18781.53
2022-11-14T02:54:28.296Z,18753.09
2022-11-14T02:56:57.782Z,18789.66
2022-11-14T02:59:25.917Z,18775.44
2022-11-14T03:01:54.118Z,18775.44
2022-11-14T03:04:22.324Z,18759.19
2022-11-14T03:06:50.486Z,18747.00
2022-11-14T03:09:18.820Z,18767.31
2022-11-14T03:11:46.977Z,18777.47
2022-11-14T03:14:16.445Z,18769.34
2022-11-14T03:16:44.531Z,18747.00
2022-11-14T03:19:12.603Z,18757.16
2022-11-14T03:21:40.691Z,18753.09
2022-11-14T03:24:09.368Z,18763.25
2022-11-14T03:26:37.458Z,18757.16
2022-11-14T03:29:06.099Z,18775.44
2022-11-14T03:31:35.560Z,18771.38
2022-11-14T03:34:03.742Z,18769.34
2022-11-14T03:36:31.839Z,18761.22
2022-11-14T03:38:59.947Z,18769.34
2022-11-14T03:41:28.042Z,18785.59
2022-11-14T03:43:56.181Z,18757.16
2022-11-14T03:46:24.589Z,18791.69
2022-11-14T03:48:54.087Z,18785.59
2022-11-14T03:51:22.386Z,18781.53
2022-11-14T03:53:50.505Z,18755.13
2022-11-14T03:56:18.604Z,18761.22
2022-11-14T03:58:46.744Z,18777.47
2022-11-14T04:01:14.886Z,18769.34
2022-11-14T04:03:43.084Z,18775.44
2022-11-14T04:06:12.584Z,18793.72
2022-11-14T04:08:42.054Z,18744.97
2022-11-14T04:11:10.299Z,18781.53
2022-11-14T04:13:38.445Z,18812.00
2022-11-14T04:16:08.403Z,18769.34
2022-11-14T04:18:36.514Z,18761.22
2022-11-14T04:21:05.125Z,18759.19
2022-11-14T04:23:34.752Z,18785.59
2022-11-14T04:26:03.047Z,18765.28
2022-11-14T04:28:31.564Z,18755.13
2022-11-14T04:31:00.341Z,18771.38
2022-11-14T04:33:28.907Z,18734.81
2022-11-14T04:35:57.024Z,18767.31
2022-11-14T04:38:25.165Z,18803.88
2022-11-14T04:40:55.408Z,18751.06
2022-11-14T04:43:23.542Z,18765.28
2022-11-14T04:45:51.651Z,18720.59
2022-11-14T04:48:19.774Z,18777.47
2022-11-14T04:50:47.873Z,18775.44
2022-11-14T04:53:15.957Z,18744.97
2022-11-14T04:55:46.239Z,18744.97
2022-11-14T04:58:15.693Z,18761.22
2022-11-14T05:00:43.799Z,18791.69
2022-11-14T05:03:11.913Z,18744.97
2022-11-14T05:05:42.256Z,18761.22
2022-11-14T05:08:10.712Z,18744.97
2022-11-14T05:10:38.831Z,18759.19
2022-11-14T05:13:06.905Z,18769.34
2022-11-14T05:15:37.115Z,18757.16
2022-11-14T05:18:05.811Z,18726.69
2022-11-14T05:20:33.943Z,18742.94
2022-11-14T05:23:02.060Z,18740.91
2022-11-14T05:25:30.224Z,18757.16
2022-11-14T05:27:58.339Z,18708.41
2022-11-14T05:30:26.435Z,18742.94
2022-11-14T05:32:55.897Z,18744.97
2022-11-14T05:35:23.999Z,18742.94
2022-11-14T05:37:54.932Z,18734.81
2022-11-14T05:40:27.039Z,18742.94
2022-11-14T05:42:56.627Z,18716.53
2022-11-14T05:45:24.745Z,18755.13
2022-11-14T05:47:54.989Z,18716.53
2022-11-14T05:50:23.137Z,18744.97
2022-11-14T05:52:51.236Z,18724.66
2022-11-14T05:55:24.406Z,18722.63
2022-11-14T05:57:53.015Z,18749.03
2022-11-14T06:00:21.373Z,18724.66
2022-11-14T06:02:54.884Z,18716.53
2022-11-14T06:05:23.864Z,18722.63
2022-11-14T06:07:57.191Z,18765.28
2022-11-14T06:10:26.463Z,18690.09
2022-11-14T06:12:54.631Z,18728.72
2022-11-14T06:15:22.799Z,18753.09
2022-11-14T06:17:54.990Z,18730.75
2022-11-14T06:20:23.201Z,18763.25
2022-11-14T06:22:54.769Z,18700.25
2022-11-14T06:25:22.966Z,18724.66
2022-11-14T06:27:51.035Z,18785.59
2022-11-14T06:30:19.344Z,18751.06
2022-11-14T06:32:47.444Z,18744.97
2022-11-14T06:35:17.275Z,18789.66
2022-11-14T06:37:45.366Z,18724.66
2022-11-14T06:40:13.924Z,18749.03
2022-11-14T06:42:42.025Z,18765.28
2022-11-14T06:45:11.397Z,18761.22
2022-11-14T06:47:39.485Z,18759.19
2022-11-14T06:50:09.488Z,18753.09
2022-11-14T06:52:38.931Z,18712.47
2022-11-14T06:55:08.091Z,18744.97
2022-11-14T06:57:36.190Z,18704.31
2022-11-14T07:00:05.735Z,18742.94
2022-11-14T07:02:33.933Z,18716.53
2022-11-14T07:05:02.074Z,18757.16
2022-11-14T07:07:30.250Z,18734.81
2022-11-14T07:09:59.749Z,18775.44
2022-11-14T07:12:29.482Z,18775.44
2022-11-14T07:14:57.541Z,18789.66
2022-11-14T07:17:30.784Z,18771.38
2022-11-14T07:19:59.419Z,18769.34
2022-11-14T07:22:27.554Z,18820.16
2022-11-14T07:24:55.669Z,18755.13
2022-11-14T07:27:25.191Z,18771.38
2022-11-14T07:29:53.301Z,18797.78
2022-11-14T07:32:21.388Z,18763.25
2022-11-14T07:34:49.487Z,18795.75
2022-11-14T07:37:17.680Z,18779.50
2022-11-14T07:39:46.419Z,18826.25
2022-11-14T07:42:14.523Z,18809.97
2022-11-14T07:44:43.969Z,18797.78
2022-11-14T07:47:12.119Z,18797.78
2022-11-14T07:49:40.197Z,18814.03
2022-11-14T07:52:08.272Z,18836.41
2022-11-14T07:54:36.366Z,18848.59
2022-11-14T07:57:04.634Z,18848.59
2022-11-14T07:59:32.774Z,18858.75
2022-11-14T08:02:02.282Z,18860.78
2022-11-14T08:04:30.381Z,18903.44
2022-11-14T08:06:58.587Z,18923.78
2022-11-14T08:09:26.819Z,18927.84
2022-11-14T08:11:54.976Z,18948.16
2022-11-14T08:14:23.145Z,18948.16
2022-11-14T08:16:52.086Z,18944.09
2022-11-14T08:19:21.584Z,18962.38
2022-11-14T08:21:49.691Z,18972.53
2022-11-14T08:24:17.808Z,18976.59
2022-11-14T08:26:45.889Z,18988.78
2022-11-14T08:29:14.054Z,19009.09
2022-11-14T08:31:42.175Z,19021.31
2022-11-14T08:34:10.802Z,19011.13
2022-11-14T08:36:40.254Z,19059.91
2022-11-14T08:39:08.372Z,19029.44
2022-11-14T08:41:36.523Z,19080.22
2022-11-14T08:44:04.781Z,19098.50
2022-11-14T08:46:32.910Z,19106.66
2022-11-14T08:49:00.988Z,19131.03
2022-11-14T08:51:31.563Z,19131.03
2022-11-14T08:54:00.994Z,19143.22
2022-11-14T08:56:29.170Z,19112.75
2022-11-14T08:58:57.350Z,19153.38
2022-11-14T09:01:25.451Z,19185.88
2022-11-14T09:03:59.426Z,19181.81
2022-11-14T09:06:28.243Z,19202.16
2022-11-14T09:08:56.528Z,19212.31
2022-11-14T09:11:26.060Z,19240.75
2022-11-14T09:13:54.197Z,19244.81
2022-11-14T09:16:22.318Z,19281.41
2022-11-14T09:18:50.431Z,19344.41
2022-11-14T09:21:18.545Z,19332.19
2022-11-14T09:23:48.319Z,19320.00
2022-11-14T09:26:18.347Z,19366.75
2022-11-14T09:28:47.794Z,19358.63
2022-11-14T09:31:15.950Z,19374.88
2022-11-14T09:33:44.076Z,19362.69
2022-11-14T09:36:15.769Z,19362.69
2022-11-14T09:38:44.477Z,19383.00
2022-11-14T09:41:26.306Z,19407.38
2022-11-14T09:44:45.779Z,19320.00
2022-11-14T09:47:21.311Z,19350.50
2022-11-14T09:49:54.799Z,19378.94
2022-11-14T09:52:36.125Z,19389.09
2022-11-14T09:55:13.441Z,19399.25
2022-11-14T09:57:44.692Z,19415.50
2022-11-14T10:00:21.284Z,19448.03
2022-11-14T10:03:16.163Z,19419.59
2022-11-14T10:06:05.414Z,19443.97
2022-11-14T10:09:00.006Z,19460.22
2022-11-14T10:11:39.505Z,19427.72
2022-11-14T10:14:54.436Z,19476.47
2022-11-14T10:17:51.991Z,19533.38
2022-11-14T10:20:30.564Z,19569.97
2022-11-14T10:23:15.578Z,19555.75
2022-11-14T10:26:01.670Z,19545.56
2022-11-14T10:28:59.825Z,19521.19
2022-11-14T10:31:45.154Z,19537.44
2022-11-14T10:34:26.447Z,19578.09
2022-11-14T10:37:06.452Z,19665.47
2022-11-14T10:39:43.108Z,19661.41
2022-11-14T10:42:18.604Z,19671.56
2022-11-14T10:44:58.256Z,19663.44
2022-11-14T10:47:30.738Z,19628.91
2022-11-14T10:50:15.429Z,19590.28
2022-11-14T10:52:46.537Z,19608.56
2022-11-14T10:55:18.074Z,19580.13
2022-11-14T10:57:47.665Z,19606.53
2022-11-14T11:00:19.613Z,19602.47
2022-11-14T11:02:57.297Z,19610.59
2022-11-14T11:05:31.770Z,19576.06
2022-11-14T11:11:31.045Z,19602.47
2022-11-14T11:14:02.171Z,19614.66
2022-11-14T11:16:31.677Z,19758.97
2022-11-14T11:19:23.393Z,19838.22
2022-11-14T11:21:54.464Z,19972.38
2022-11-14T11:24:34.462Z,20063.81
2022-11-14T11:27:23.508Z,20102.44
2022-11-14T11:30:09.103Z,20067.88
2022-11-14T11:32:37.252Z,19976.44
2022-11-14T11:35:13.057Z,19945.94
2022-11-14T11:37:54.581Z,19868.72
2022-11-14T11:40:26.609Z,19819.94
2022-11-14T11:43:37.405Z,19797.59
2022-11-14T11:45:56.556Z,19797.59
2022-11-14T11:48:38.214Z,19779.28
2022-11-14T11:51:14.701Z,19811.81
2022-11-14T11:53:51.877Z,19795.53
2022-11-14T11:56:27.263Z,19834.16
2022-11-14T11:59:03.768Z,19862.63
2022-11-14T12:01:31.997Z,19852.44
2022-11-14T12:04:04.037Z,19887.00
2022-11-14T12:06:43.672Z,19834.16
2022-11-14T12:09:32.872Z,19824.00
2022-11-14T12:12:26.431Z,19819.94
2022-11-14T12:15:17.174Z,19799.63
2022-11-14T12:18:43.626Z,19817.91
2022-11-14T12:21:37.950Z,19799.63
2022-11-14T12:24:52.007Z,19815.88
2022-11-14T12:27:58.711Z,19789.44
2022-11-14T12:30:29.144Z,19793.50
2022-11-14T12:33:02.946Z,19848.38
2022-11-14T12:35:34.545Z,19850.41
2022-11-14T12:38:06.834Z,19785.38
2022-11-14T12:40:40.288Z,19781.31
2022-11-14T12:43:36.328Z,19775.22
2022-11-14T12:46:09.677Z,19828.06
2022-11-14T12:48:40.545Z,19809.78
2022-11-14T12:51:52.360Z,19795.53
2022-11-14T12:54:47.212Z,19781.31
2022-11-14T12:57:48.995Z,19793.50
2022-11-14T13:00:19.444Z,19773.19
2022-11-14T13:03:13.768Z,19793.50
2022-11-14T13:05:58.229Z,19807.75
2022-11-14T13:09:10.491Z,19785.38
2022-11-14T13:12:00.771Z,19791.47
2022-11-14T13:14:49.210Z,19801.66
2022-11-14T13:17:46.137Z,19793.50
2022-11-14T13:20:54.318Z,19783.34
2022-11-14T13:23:57.775Z,19791.47
2022-11-14T13:26:48.886Z,19771.16
2022-11-14T13:29:58.712Z,19797.59
2022-11-14T13:32:56.458Z,19777.25
2022-11-14T13:35:43.238Z,19744.75
2022-11-14T13:39:01.129Z,19765.06
2022-11-14T13:42:08.986Z,19708.16
2022-11-14T13:45:25.970Z,19677.66
2022-11-14T13:48:37.095Z,19726.44
2022-11-14T13:51:41.163Z,19726.44
2022-11-14T13:54:00.750Z,19698.00
2022-11-14T13:56:41.245Z,19657.34
2022-11-14T13:59:43.966Z,19620.78
2022-11-14T14:03:02.806Z,19618.75
2022-11-14T14:05:48.599Z,19602.47
2022-11-14T14:08:39.150Z,19578.09
2022-11-14T14:11:46.002Z,19594.34
2022-11-14T14:14:38.410Z,19592.31
2022-11-14T14:17:16.254Z,19574.03
2022-11-14T14:20:02.590Z,19590.28
2022-11-14T14:22:46.922Z,19531.34
2022-11-14T14:25:25.608Z,19561.84
2022-11-14T14:28:11.152Z,19529.31
2022-11-14T14:30:39.283Z,19557.78
2022-11-14T14:33:17.718Z,19533.38
2022-11-14T14:35:54.644Z,19535.41
2022-11-14T14:38:29.252Z,19559.81
2022-11-14T14:40:58.117Z,19535.41
2022-11-14T14:43:34.514Z,19525.25
2022-11-14T14:46:03.467Z,19543.53
2022-11-14T14:48:36.617Z,19502.91
2022-11-14T14:51:07.422Z,19509.00
2022-11-14T14:53:37.267Z,19525.25
2022-11-14T14:56:18.217Z,19502.91
2022-11-14T14:58:46.348Z,19486.66
2022-11-14T15:01:17.682Z,19484.59
2022-11-14T15:03:51.047Z,19509.00
2022-11-14T15:06:32.961Z,19492.75
2022-11-14T15:09:09.597Z,19486.66
2022-11-14T15:11:42.406Z,19470.38
2022-11-14T15:14:15.051Z,19500.88
2022-11-14T15:16:44.875Z,19478.50
2022-11-14T15:19:17.803Z,19456.16
2022-11-14T15:22:02.452Z,19399.25
2022-11-14T15:24:30.990Z,19411.44
2022-11-14T15:26:59.464Z,19391.13
2022-11-14T15:29:31.547Z,19399.25
2022-11-14T15:32:02.761Z,19380.97
2022-11-14T15:34:33.240Z,19407.38
2022-11-14T15:37:24.579Z,19374.88
2022-11-14T15:39:52.818Z,19364.72
2022-11-14T15:42:29.257Z,19352.53
2022-11-14T15:44:58.022Z,19378.94
2022-11-14T15:47:28.905Z,19342.34
2022-11-14T15:50:02.445Z,19370.81
2022-11-14T15:52:37.280Z,19346.44
2022-11-14T15:55:14.625Z,19362.69
2022-11-14T15:57:45.415Z,19340.31
2022-11-14T16:00:19.339Z,19362.69
2022-11-14T16:02:52.671Z,19358.63
2022-11-14T16:05:27.994Z,19334.22
2022-11-14T16:07:57.641Z,19330.16
2022-11-14T16:10:28.097Z,19313.91
2022-11-14T16:12:56.178Z,19305.78
2022-11-14T16:15:24.263Z,19287.50
2022-11-14T16:17:52.424Z,19293.59
2022-11-14T16:20:23.798Z,19291.56
2022-11-14T16:22:53.816Z,19250.91
2022-11-14T16:25:26.094Z,19269.22
2022-11-14T16:27:54.732Z,19281.41
2022-11-14T16:30:25.584Z,19269.22
2022-11-14T16:32:53.977Z,19269.22
2022-11-14T16:35:24.775Z,19265.13
2022-11-14T16:37:55.219Z,19273.28
2022-11-14T16:40:27.984Z,19240.75
2022-11-14T16:42:59.405Z,19265.13
2022-11-14T16:45:28.215Z,19261.06
2022-11-14T16:47:56.362Z,19232.63
2022-11-14T16:50:24.432Z,19216.38
2022-11-14T16:52:53.563Z,19224.50
2022-11-14T16:55:21.634Z,19216.38
2022-11-14T16:57:51.031Z,19234.66
2022-11-14T17:00:19.147Z,19202.16
2022-11-14T17:02:47.738Z,19204.19
2022-11-14T17:05:16.388Z,19216.38
2022-11-14T17:07:44.471Z,19177.75
2022-11-14T17:10:12.523Z,19179.78
2022-11-14T17:12:40.556Z,19189.97
2022-11-14T17:15:10.867Z,19179.78
2022-11-14T17:17:38.896Z,19208.25
2022-11-14T17:20:08.524Z,19149.31
2022-11-14T17:22:36.584Z,19210.28
2022-11-14T17:25:05.332Z,19175.72
2022-11-14T17:27:33.368Z,19149.31
2022-11-14T17:30:01.435Z,19177.75
2022-11-14T17:32:32.288Z,19131.03
2022-11-14T17:35:00.325Z,19147.28
2022-11-14T17:37:28.401Z,19169.63
2022-11-14T17:39:56.456Z,19177.75
2022-11-14T17:42:24.547Z,19147.28
2022-11-14T17:44:52.981Z,19141.19
2022-11-14T17:47:21.144Z,19155.41
2022-11-14T17:49:50.575Z,19153.38
2022-11-14T17:52:18.627Z,19137.13
2022-11-14T17:54:46.675Z,19179.78
2022-11-14T17:57:14.763Z,19129.00
2022-11-14T17:59:42.769Z,19147.28
2022-11-14T18:02:15.435Z,19151.34
2022-11-14T18:04:43.524Z,19151.34
2022-11-14T18:07:13.128Z,19145.25
2022-11-14T18:09:41.370Z,19135.09
2022-11-14T18:12:09.511Z,19149.31
2022-11-14T18:14:37.523Z,19118.84
2022-11-14T18:17:12.819Z,19114.78
2022-11-14T18:19:41.563Z,19147.28
2022-11-14T18:22:09.992Z,19153.38
2022-11-14T18:24:43.199Z,19141.19
2022-11-14T18:27:11.237Z,19137.13
2022-11-14T18:29:39.296Z,19175.72
2022-11-14T18:32:07.428Z,19179.78
2022-11-14T18:34:36.791Z,19204.19
2022-11-14T18:37:05.441Z,19163.53
2022-11-14T18:39:33.633Z,19163.53
2022-11-14T18:42:03.064Z,19218.41
2022-11-14T18:44:31.348Z,19226.53
2022-11-14T18:46:59.376Z,19240.75
2022-11-14T18:49:28.329Z,19210.28
2022-11-14T18:51:56.583Z,19200.13
2022-11-14T18:54:24.764Z,19216.38
2022-11-14T18:56:52.867Z,19192.00
2022-11-14T18:59:22.414Z,19232.63
2022-11-14T19:01:50.674Z,19202.16
2022-11-14T19:04:19.659Z,19177.75
2022-11-14T19:06:48.067Z,19212.31
2022-11-14T19:09:22.130Z,19208.25
2022-11-14T19:12:08.223Z,19196.06
2022-11-14T19:14:37.918Z,19212.31
2022-11-14T19:17:07.140Z,19220.44
2022-11-14T19:19:35.235Z,19228.56
2022-11-14T19:22:04.013Z,19206.22
2022-11-14T19:24:32.324Z,19279.38
2022-11-14T19:27:03.229Z,19259.03
2022-11-14T19:29:31.319Z,19281.41
2022-11-14T19:32:00.800Z,19250.91
2022-11-14T19:34:28.938Z,19303.75
2022-11-14T19:37:01.144Z,19283.44
2022-11-14T19:39:30.034Z,19305.78
2022-11-14T19:41:58.326Z,19246.84
2022-11-14T19:44:26.480Z,19226.53
2022-11-14T19:46:54.597Z,19257.00
2022-11-14T19:49:24.103Z,19244.81
2022-11-14T19:51:52.228Z,19254.97
2022-11-14T19:54:20.443Z,19244.81
2022-11-14T19:56:48.539Z,19254.97
2022-11-14T19:59:20.202Z,19236.69
2022-11-14T20:01:55.219Z,19240.75
2022-11-14T20:04:25.039Z,19226.53
2022-11-14T20:06:53.390Z,19208.25
2022-11-14T20:09:21.633Z,19181.81
2022-11-14T20:11:49.870Z,19173.69
2022-11-14T20:14:19.342Z,19175.72
2022-11-14T20:16:47.514Z,19167.59
2022-11-14T20:19:16.091Z,19159.47
2022-11-14T20:21:45.676Z,19177.75
2022-11-14T20:24:17.619Z,19157.44
2022-11-14T20:26:46.295Z,19129.00
2022-11-14T20:29:14.566Z,19153.38
2022-11-14T20:31:42.814Z,19145.25
2022-11-14T20:34:12.523Z,19145.25
2022-11-14T20:37:09.433Z,19157.44
2022-11-14T20:39:30.850Z,19139.16
2022-11-14T20:41:59.051Z,19126.97
2022-11-14T20:44:27.248Z,19114.78
2022-11-14T20:46:56.909Z,19135.09
2022-11-14T20:49:25.189Z,19086.31
2022-11-14T20:51:53.405Z,19131.03
2022-11-14T20:54:21.640Z,19094.44
2022-11-14T20:56:51.259Z,19076.16
2022-11-14T20:59:19.597Z,19106.66
2022-11-14T21:01:48.089Z,19112.75
2022-11-14T21:04:16.457Z,19102.56
2022-11-14T21:06:44.680Z,19094.44
2022-11-14T21:09:12.845Z,19086.31
2022-11-14T21:11:40.939Z,19063.97
2022-11-14T21:14:12.342Z,19074.13
2022-11-14T21:16:41.492Z,19076.16
2022-11-14T21:19:09.617Z,19074.13
2022-11-14T21:21:39.198Z,19072.09
2022-11-14T21:24:08.525Z,19078.19
2022-11-14T21:26:40.347Z,19045.69
2022-11-14T21:29:13.263Z,19082.25
2022-11-14T21:31:44.504Z,19100.53
2022-11-14T21:34:16.689Z,19070.06
2022-11-14T21:36:46.935Z,19080.22
2022-11-14T21:39:17.441Z,19045.69
2022-11-14T21:41:48.444Z,18974.56
2022-11-14T21:44:18.881Z,19080.22
2022-11-14T21:46:49.642Z,19039.59
2022-11-14T21:49:17.981Z,19015.19
2022-11-14T21:51:47.072Z,19037.56
2022-11-14T21:54:15.321Z,19049.75
2022-11-14T21:56:43.498Z,19055.84
2022-11-14T21:59:18.636Z,19059.91
2022-11-14T22:02:19.390Z,19043.66
2022-11-14T22:04:47.481Z,19029.44
2022-11-14T22:07:17.247Z,19019.28
2022-11-14T22:09:45.698Z,19063.97
2022-11-14T22:12:13.889Z,19015.19
2022-11-14T22:14:41.994Z,19021.31
2022-11-14T22:17:11.425Z,19019.28
2022-11-14T22:19:39.585Z,19035.53
2022-11-14T22:22:07.740Z,19041.63
2022-11-14T22:24:35.824Z,19031.47
2022-11-14T22:27:04.006Z,19037.56
2022-11-14T22:29:32.074Z,19043.66
2022-11-14T22:32:00.179Z,19051.78
2022-11-14T22:34:29.664Z,19033.50
2022-11-14T22:36:57.809Z,19031.47
2022-11-14T22:39:25.880Z,19047.72
2022-11-14T22:41:54.012Z,19011.13
2022-11-14T22:44:22.070Z,19031.47
2022-11-14T22:46:50.161Z,19017.25
2022-11-14T22:49:21.027Z,19007.06
2022-11-14T22:51:50.887Z,18980.66
2022-11-14T22:54:20.652Z,19029.44
2022-11-14T22:56:48.801Z,19045.69
2022-11-14T22:59:16.921Z,19033.50
2022-11-14T23:01:45.181Z,19053.81
2022-11-14T23:04:13.511Z,19017.25
2022-11-14T23:06:41.679Z,19025.38
2022-11-14T23:09:11.403Z,19015.19
2022-11-14T23:11:39.532Z,19000.97
2022-11-14T23:14:07.633Z,19017.25
2022-11-14T23:16:36.188Z,18972.53
2022-11-14T23:19:05.892Z,19021.31
2022-11-14T23:21:36.992Z,19009.09
2022-11-14T23:24:09.375Z,19003.00
2022-11-14T23:26:38.834Z,18998.94
2022-11-14T23:29:07.010Z,19003.00
2022-11-14T23:31:35.114Z,19037.56
2022-11-14T23:34:03.202Z,18988.78
2022-11-14T23:36:31.342Z,19009.09
2022-11-14T23:38:59.488Z,19007.06
2022-11-14T23:41:27.626Z,19007.06
2022-11-14T23:43:57.113Z,19027.41
2022-11-14T23:46:25.321Z,19017.25
2022-11-14T23:48:54.279Z,18994.88
2022-11-14T23:51:22.440Z,18972.53
2022-11-14T23:53:51.867Z,18988.78
2022-11-14T23:56:19.972Z,19027.41
2022-11-14T23:58:48.066Z,19017.25
